Time;durP1;ratioP1;P1;durP2;ratioP2;P2;SDS_P1;SDS_P2;PMS_P1;PMS_P2;Temp;Humidity;BMP_temperature;BMP_pressure;BME280_temperature;BME280_humidity;BME280_pressure;Samples;Min_cycle;Max_cycle;Signal;HPM_P1;HPM_P2
2023/08/26 00:01:13;;;;;;;11.00;10.07;;;20.30;99.90;;;20.13;100.00;97324.91;5105221;28;21007;-71
2023/08/26 00:03:40;;;;;;;10.57;9.60;;;20.20;99.90;;;19.80;100.00;97268.81;5089630;28;20460;-72
2023/08/26 00:06:08;;;;;;;10.40;9.40;;;20.20;99.90;;;20.06;100.00;97320.56;5093275;28;20444;-70
2023/08/26 00:08:35;;;;;;;10.03;9.10;;;20.20;99.90;;;19.92;100.00;97303.22;5091705;28;20500;-70
2023/08/26 00:11:03;;;;;;;11.10;10.07;;;20.10;99.90;;;19.99;100.00;97295.47;5092009;28;20436;-70
2023/08/26 00:13:30;;;;;;;9.40;8.50;;;20.10;99.90;;;19.89;100.00;97303.78;5091888;28;20461;-70
2023/08/26 00:15:57;;;;;;;11.43;9.10;;;20.00;99.90;;;19.73;100.00;97306.72;5093042;28;20447;-70
2023/08/26 00:18:24;;;;;;;10.57;9.27;;;20.00;99.90;;;19.80;100.00;97320.91;5088628;28;20466;-70
2023/08/26 00:20:51;;;;;;;12.37;9.20;;;20.00;99.90;;;19.38;100.00;97245.78;5090275;28;20818;-70
2023/08/26 00:23:20;;;;;;;10.07;9.13;;;20.00;99.90;;;19.92;100.00;97325.16;5091380;28;20495;-70
2023/08/26 00:25:47;;;;;;;10.80;9.70;;;20.00;99.90;;;19.95;100.00;97352.00;5092917;28;20445;-71
2023/08/26 00:28:15;;;;;;;11.23;9.53;;;20.10;99.90;;;19.97;100.00;97360.75;5090030;28;20438;-70
2023/08/26 00:30:43;;;;;;;10.93;8.37;;;20.20;99.90;;;20.03;100.00;97359.56;5107380;28;20457;-70
2023/08/26 00:33:10;;;;;;;10.27;9.27;;;20.10;99.90;;;20.20;100.00;97356.31;5086792;28;21082;-70
2023/08/26 00:35:38;;;;;;;9.57;8.67;;;20.20;99.90;;;20.21;100.00;97370.84;5091506;28;20500;-70
2023/08/26 00:38:06;;;;;;;10.13;9.23;;;20.30;99.90;;;20.15;100.00;97366.53;5092663;28;20472;-70
2023/08/26 00:40:37;;;;;;;11.17;10.10;;;20.20;99.90;;;20.27;100.00;97364.19;5092690;28;21018;-70
2023/08/26 00:43:09;;;;;;;9.67;8.67;;;20.30;99.90;;;20.24;100.00;97360.09;5091793;28;20510;-70
2023/08/26 00:45:36;;;;;;;10.57;9.50;;;20.20;99.90;;;20.17;100.00;97356.09;5091847;28;20448;-70
2023/08/26 00:48:03;;;;;;;11.00;8.23;;;20.20;99.90;;;19.64;100.00;97366.03;5091183;28;20509;-70
2023/08/26 00:50:31;;;;;;;11.43;9.90;;;20.00;99.90;;;19.49;100.00;97370.56;5087377;28;20449;-70
2023/08/26 00:52:58;;;;;;;9.97;9.07;;;19.90;99.90;;;19.49;100.00;97373.31;5089856;28;20847;-71
2023/08/26 00:55:25;;;;;;;9.83;8.93;;;19.90;99.90;;;19.44;100.00;97388.97;5088068;28;20498;-70
2023/08/26 00:57:55;;;;;;;9.57;8.60;;;19.90;99.90;;;19.51;100.00;97398.47;5092069;28;20472;-71
2023/08/26 01:00:23;;;;;;;11.00;10.00;;;19.90;99.90;;;19.62;100.00;97425.75;5090970;28;20506;-70
2023/08/26 01:02:51;;;;;;;11.77;10.67;;;20.00;99.90;;;19.63;100.00;97438.34;5089313;28;20508;-70
2023/08/26 01:05:18;;;;;;;11.20;10.20;;;20.00;99.90;;;19.48;100.00;97422.88;5090865;28;20908;-70
2023/08/26 01:07:46;;;;;;;12.67;11.47;;;20.00;99.90;;;19.63;100.00;97421.91;5094275;28;20944;-70
2023/08/26 01:10:13;;;;;;;12.53;11.30;;;20.00;99.90;;;19.50;100.00;97377.66;5092359;28;20602;-70
2023/08/26 01:12:51;;;;;;;12.80;11.60;;;20.10;99.90;;;19.55;100.00;97420.59;5091510;28;21103;-69
2023/08/26 01:15:20;;;;;;;11.00;10.10;;;20.00;99.90;;;19.59;100.00;97434.56;5085400;28;20523;-70
2023/08/26 01:17:48;;;;;;;12.23;10.93;;;19.90;99.90;;;19.60;100.00;97417.84;5090027;28;20562;-70
2023/08/26 01:20:17;;;;;;;13.20;11.93;;;20.00;99.90;;;19.67;100.00;97412.03;5079009;28;20450;-71
2023/08/26 01:22:47;;;;;;;14.40;13.00;;;20.00;99.90;;;19.57;100.00;97420.34;5086985;28;20463;-71
2023/08/26 01:25:16;;;;;;;14.43;12.97;;;20.00;99.90;;;19.11;100.00;97384.03;5092207;28;20945;-70
2023/08/26 01:27:44;;;;;;;13.73;12.33;;;19.90;99.90;;;19.69;100.00;97442.69;5091903;28;20465;-70
2023/08/26 01:30:13;;;;;;;13.20;11.90;;;20.00;99.90;;;19.67;100.00;97422.97;5091639;28;20941;-70
2023/08/26 01:32:45;;;;;;;13.90;12.60;;;20.10;99.90;;;19.57;100.00;97420.34;5090999;28;20846;-69
2023/08/26 01:35:18;;;;;;;13.73;12.40;;;20.00;99.90;;;19.54;100.00;97425.28;5082068;28;20453;-70
2023/08/26 01:37:47;;;;;;;13.23;12.03;;;20.00;99.90;;;19.54;100.00;97436.25;5085230;28;20499;-70
2023/08/26 01:40:18;;;;;;;15.53;12.27;;;19.90;99.90;;;19.50;100.00;97457.13;5084304;28;20440;-72
2023/08/26 01:42:47;;;;;;;13.33;12.03;;;19.90;99.90;;;19.61;100.00;97457.00;5090721;28;20447;-71
2023/08/26 01:45:14;;;;;;;13.73;12.40;;;20.00;99.90;;;19.68;100.00;97441.06;5095485;28;20771;-69
2023/08/26 01:47:41;;;;;;;14.20;12.90;;;20.00;99.90;;;19.69;100.00;97434.47;5087801;28;20449;-69
2023/08/26 01:50:10;;;;;;;11.87;10.67;;;20.00;99.90;;;19.73;100.00;97421.81;5090788;28;20454;-70
2023/08/26 01:52:37;;;;;;;13.10;11.90;;;20.10;99.90;;;19.70;100.00;97424.31;5089205;28;20457;-69
2023/08/26 01:55:05;;;;;;;13.00;11.60;;;20.10;99.90;;;19.66;100.00;97429.56;5091100;28;20453;-69
2023/08/26 01:57:33;;;;;;;10.47;9.57;;;20.10;99.90;;;19.65;100.00;97447.91;5091161;28;20447;-70
2023/08/26 02:00:00;;;;;;;10.27;9.40;;;20.10;99.90;;;19.66;100.00;97438.59;5089788;28;20439;-69
2023/08/26 02:02:28;;;;;;;9.60;8.70;;;20.10;99.90;;;19.71;100.00;97447.84;5090233;28;20513;-70
2023/08/26 02:04:55;;;;;;;8.43;7.63;;;20.10;99.90;;;19.63;100.00;97432.88;5092048;28;20447;-68
2023/08/26 02:07:23;;;;;;;9.37;8.53;;;20.10;99.90;;;19.59;100.00;97440.03;5090950;28;20453;-69
2023/08/26 02:09:50;;;;;;;8.30;7.60;;;20.00;99.90;;;19.61;100.00;97429.59;5088582;28;20950;-70
2023/08/26 02:12:17;;;;;;;8.73;7.93;;;20.00;99.90;;;19.59;100.00;97431.81;5090292;28;20938;-70
2023/08/26 02:14:46;;;;;;;9.17;8.27;;;20.00;99.90;;;19.56;100.00;97438.69;5090737;28;20522;-69
2023/08/26 02:17:13;;;;;;;9.23;7.53;;;20.00;99.90;;;19.64;100.00;97456.44;5090924;28;20524;-70
2023/08/26 02:19:40;;;;;;;7.93;7.00;;;20.00;99.90;;;19.57;100.00;97440.34;5090427;28;20515;-70
2023/08/26 02:22:09;;;;;;;7.77;7.10;;;20.00;99.90;;;19.60;100.00;97436.19;5089992;28;20496;-69
2023/08/26 02:24:36;;;;;;;7.87;7.00;;;19.90;99.90;;;19.59;100.00;97460.03;5090649;28;21007;-70
2023/08/26 02:27:04;;;;;;;8.37;7.57;;;20.00;99.90;;;19.68;100.00;97476.66;5089472;28;20480;-70
2023/08/26 02:29:31;;;;;;;8.90;8.07;;;20.00;99.90;;;19.64;100.00;97459.19;5090758;28;20449;-70
2023/08/26 02:32:00;;;;;;;8.90;7.90;;;20.00;99.90;;;19.49;100.00;97452.75;5088268;28;20453;-70
2023/08/26 02:34:27;;;;;;;9.47;8.43;;;19.90;99.90;;;19.57;100.00;97453.22;5090592;28;20508;-71
2023/08/26 02:36:54;;;;;;;10.57;6.97;;;19.90;99.90;;;19.49;100.00;97471.91;5088343;28;20453;-70
2023/08/26 02:39:21;;;;;;;8.27;7.67;;;19.90;99.90;;;19.40;100.00;97468.16;5090462;28;20478;-70
2023/08/26 02:41:49;;;;;;;8.57;7.80;;;19.70;99.90;;;19.19;100.00;97484.75;5088003;28;20451;-71
2023/08/26 02:44:16;;;;;;;9.30;8.40;;;19.60;99.90;;;19.19;100.00;97482.00;5089719;28;20502;-70
2023/08/26 02:46:43;;;;;;;8.67;7.97;;;19.60;99.90;;;19.24;100.00;97481.97;5089315;28;20932;-71
2023/08/26 02:49:11;;;;;;;9.90;8.27;;;19.60;99.90;;;19.30;100.00;97501.09;5081608;28;20439;-70
2023/08/26 02:51:39;;;;;;;8.57;7.10;;;19.60;99.90;;;19.20;100.00;97502.81;5084939;28;20465;-70
2023/08/26 02:54:06;;;;;;;10.10;8.27;;;19.60;99.90;;;19.16;100.00;97501.72;5094488;28;20447;-70
2023/08/26 02:56:33;;;;;;;10.10;7.47;;;19.60;99.90;;;19.08;100.00;97516.03;5093354;28;20937;-69
2023/08/26 02:59:01;;;;;;;9.23;8.33;;;19.50;99.90;;;19.03;100.00;97503.19;5094566;28;20520;-70
2023/08/26 03:01:30;;;;;;;8.47;7.50;;;19.40;99.90;;;18.88;100.00;97487.66;5092422;28;20499;-70
2023/08/26 03:03:57;;;;;;;7.97;7.20;;;19.30;99.90;;;18.82;100.00;97496.97;5094392;28;20448;-69
2023/08/26 03:06:26;;;;;;;9.17;6.70;;;19.30;99.90;;;18.76;100.00;97493.44;5092970;28;20454;-69
2023/08/26 03:08:53;;;;;;;7.10;6.50;;;19.20;99.90;;;18.65;100.00;97498.16;5093206;28;20449;-69
2023/08/26 03:11:20;;;;;;;9.17;7.43;;;19.20;99.90;;;18.66;100.00;97499.00;5093128;28;20439;-70
2023/08/26 03:13:47;;;;;;;11.07;8.10;;;19.10;99.90;;;18.67;100.00;97506.91;5094450;28;20440;-70
2023/08/26 03:16:14;;;;;;;8.40;7.70;;;19.20;99.90;;;18.62;100.00;97512.41;5094478;28;20517;-69
2023/08/26 03:18:42;;;;;;;7.63;6.90;;;19.10;99.90;;;18.69;100.00;97521.13;5093227;28;20958;-69
2023/08/26 03:21:10;;;;;;;8.73;7.80;;;19.10;99.90;;;18.68;100.00;97502.25;5092483;28;21258;-69
2023/08/26 03:23:38;;;;;;;8.90;8.10;;;19.10;99.90;;;18.66;100.00;97502.53;5092115;28;20453;-69
2023/08/26 03:26:05;;;;;;;8.77;7.63;;;19.10;99.90;;;18.57;100.00;97501.47;5093773;28;20448;-69
2023/08/26 03:28:33;;;;;;;9.33;8.40;;;19.00;99.90;;;18.60;100.00;97506.41;5094493;28;20481;-68
2023/08/26 03:31:04;;;;;;;9.67;8.57;;;19.00;99.90;;;18.60;100.00;97514.59;5092743;28;20475;-69
2023/08/26 03:33:31;;;;;;;8.20;7.50;;;19.00;99.90;;;18.67;100.00;97517.03;5090865;28;20901;-69
2023/08/26 03:35:59;;;;;;;8.73;7.83;;;19.00;99.90;;;18.73;100.00;97524.13;5093502;28;20448;-69
2023/08/26 03:38:26;;;;;;;9.37;8.40;;;19.10;99.90;;;18.75;100.00;97529.31;5093979;28;20974;-69
2023/08/26 03:40:54;;;;;;;7.87;7.17;;;19.10;99.90;;;18.64;100.00;97525.78;5093532;28;20461;-68
2023/08/26 03:43:22;;;;;;;7.93;7.23;;;19.10;99.90;;;18.63;100.00;97507.75;5085626;28;20469;-68
2023/08/26 03:45:49;;;;;;;8.33;7.57;;;19.10;99.90;;;18.53;100.00;97505.88;5082381;28;20480;-68
2023/08/26 03:48:16;;;;;;;9.20;8.13;;;19.00;99.90;;;18.57;100.00;97500.66;5092521;28;20450;-69
2023/08/26 03:50:51;;;;;;;9.83;8.47;;;19.00;99.90;;;18.45;100.00;97487.31;5090712;28;20470;-69
2023/08/26 03:53:18;;;;;;;9.10;8.20;;;19.00;99.90;;;18.66;100.00;97508.00;5084630;28;20463;-69
2023/08/26 03:55:46;;;;;;;8.27;7.47;;;19.10;99.90;;;18.61;100.00;97515.41;5093114;28;20736;-69
2023/08/26 03:58:15;;;;;;;8.90;8.10;;;19.10;99.90;;;18.57;100.00;97500.66;5093508;28;20448;-69
2023/08/26 04:00:43;;;;;;;8.90;8.00;;;19.00;99.90;;;18.62;100.00;97508.84;5093692;28;20602;-69
2023/08/26 04:03:11;;;;;;;8.60;7.80;;;19.00;99.90;;;18.52;100.00;97513.28;5083562;28;20448;-69
2023/08/26 04:05:39;;;;;;;8.50;7.57;;;19.00;99.90;;;18.53;100.00;97512.19;5094471;28;20454;-69
2023/08/26 04:08:06;;;;;;;10.27;7.47;;;18.90;99.90;;;18.54;100.00;97513.81;5089090;28;20458;-69
2023/08/26 04:10:33;;;;;;;8.33;7.33;;;19.00;99.90;;;18.58;100.00;97510.50;5085227;28;20582;-69
2023/08/26 04:13:05;;;;;;;8.80;7.90;;;19.00;99.90;;;18.52;100.00;97504.25;5090356;28;20451;-70
2023/08/26 04:15:33;;;;;;;10.67;7.67;;;18.90;99.90;;;18.58;100.00;97513.25;5092987;28;20462;-69
2023/08/26 04:18:00;;;;;;;8.17;6.90;;;19.00;99.90;;;18.58;100.00;97508.59;5082418;28;20484;-69
2023/08/26 04:20:27;;;;;;;7.70;7.00;;;19.00;99.90;;;18.55;100.00;97503.66;5080591;28;20474;-69
2023/08/26 04:22:54;;;;;;;7.13;6.53;;;19.00;99.90;;;18.58;100.00;97500.41;5091322;28;20456;-70
2023/08/26 04:25:21;;;;;;;8.20;7.47;;;19.00;99.90;;;18.55;100.00;97503.66;5090702;28;20440;-69
2023/08/26 04:27:49;;;;;;;8.00;7.40;;;19.00;99.90;;;18.52;100.00;97498.75;5092721;28;20468;-70
2023/08/26 04:30:16;;;;;;;8.43;7.63;;;19.00;99.90;;;18.49;100.00;97488.41;5092809;28;20451;-68
2023/08/26 04:32:47;;;;;;;8.63;7.83;;;19.00;99.90;;;18.61;100.00;97485.31;5088106;28;20439;-69
2023/08/26 04:35:16;;;;;;;7.70;6.93;;;19.00;99.90;;;18.63;100.00;97492.16;5092532;28;20567;-68
2023/08/26 04:37:43;;;;;;;7.90;6.83;;;19.00;99.90;;;18.65;100.00;97503.63;5091888;28;20465;-70
2023/08/26 04:40:12;;;;;;;8.20;7.07;;;19.10;99.90;;;18.65;100.00;97502.81;5090074;28;20470;-70
2023/08/26 04:42:40;;;;;;;9.20;7.60;;;19.10;99.90;;;18.64;100.00;97510.19;5090358;28;20448;-69
2023/08/26 04:45:09;;;;;;;9.30;8.30;;;19.00;99.90;;;18.69;100.00;97518.38;5091037;28;20484;-69
2023/08/26 04:47:37;;;;;;;9.17;8.37;;;19.10;99.90;;;18.54;100.00;97496.56;5092533;28;20523;-68
2023/08/26 04:50:08;;;;;;;9.40;8.50;;;19.20;99.90;;;18.67;100.00;97511.56;5091414;28;20449;-68
2023/08/26 04:52:35;;;;;;;8.93;8.07;;;19.10;99.90;;;18.70;100.00;97511.00;5083467;28;20569;-69
2023/08/26 04:55:04;;;;;;;10.83;9.13;;;19.10;99.90;;;18.78;100.00;97539.69;5089876;28;20803;-69
2023/08/26 04:57:31;;;;;;;8.97;8.07;;;19.20;99.90;;;18.76;100.00;97528.22;5092420;28;20766;-69
2023/08/26 04:59:58;;;;;;;9.10;8.30;;;19.20;99.90;;;18.76;100.00;97530.97;5089624;28;20517;-68
2023/08/26 05:02:25;;;;;;;9.20;8.30;;;19.20;99.90;;;18.75;100.00;97540.25;5091041;28;20787;-70
2023/08/26 05:04:53;;;;;;;9.60;8.70;;;19.20;99.90;;;18.78;100.00;97540.50;5087960;28;20466;-69
2023/08/26 05:07:22;;;;;;;9.70;8.80;;;19.20;99.90;;;18.81;100.00;97533.66;5092294;28;20446;-69
2023/08/26 05:09:49;;;;;;;9.50;8.60;;;19.20;99.90;;;18.84;100.00;97541.28;5091932;28;20438;-69
2023/08/26 05:12:16;;;;;;;10.03;9.20;;;19.30;99.90;;;18.87;100.00;97546.19;5089895;28;20512;-69
2023/08/26 05:14:43;;;;;;;9.47;8.00;;;19.30;99.90;;;18.95;100.00;97559.31;5086692;28;20953;-69
2023/08/26 05:17:10;;;;;;;8.70;7.80;;;19.40;99.90;;;18.96;100.00;97552.72;5089910;28;20451;-68
2023/08/26 05:19:38;;;;;;;8.63;7.80;;;19.30;99.90;;;18.87;100.00;97554.41;5103530;28;20481;-69
2023/08/26 05:22:05;;;;;;;8.37;7.57;;;19.30;99.90;;;18.84;100.00;97554.97;5089087;28;20456;-69
2023/08/26 05:24:34;;;;;;;9.80;8.80;;;19.30;99.90;;;18.96;100.00;97550.00;5086753;28;20457;-69
2023/08/26 05:27:01;;;;;;;9.80;8.40;;;19.40;99.90;;;18.91;100.00;97555.50;5091469;28;20454;-69
2023/08/26 05:29:28;;;;;;;8.50;7.70;;;19.40;99.90;;;18.96;100.00;97566.41;5090361;28;20482;-70
2023/08/26 05:31:55;;;;;;;8.47;7.67;;;19.40;99.90;;;18.87;100.00;97559.88;5090686;28;20444;-70
2023/08/26 05:34:22;;;;;;;9.17;8.27;;;19.40;99.90;;;18.95;100.00;97566.69;5090183;28;20463;-70
2023/08/26 05:36:49;;;;;;;8.73;7.93;;;19.40;99.90;;;19.05;100.00;97560.41;5087388;28;20445;-70
2023/08/26 05:39:16;;;;;;;8.50;7.70;;;19.60;99.90;;;19.24;100.00;97564.09;5090263;28;20972;-70
2023/08/26 05:41:45;;;;;;;9.00;8.20;;;19.60;99.90;;;19.19;100.00;97566.06;5089633;28;20447;-69
2023/08/26 05:44:12;;;;;;;8.70;7.60;;;19.60;99.90;;;19.27;100.00;97570.13;5090242;28;20967;-68
2023/08/26 05:46:39;;;;;;;9.20;8.40;;;19.70;99.90;;;19.38;100.00;97564.28;5091471;28;20898;-69
2023/08/26 05:49:07;;;;;;;8.93;8.13;;;19.80;99.90;;;19.45;100.00;97572.19;5091061;28;20460;-69
2023/08/26 05:51:34;;;;;;;12.80;8.90;;;19.90;99.90;;;19.44;100.00;97565.06;5087955;28;20448;-70
2023/08/26 05:54:01;;;;;;;8.33;7.67;;;19.90;99.90;;;19.47;100.00;97583.66;5089640;28;20811;-70
2023/08/26 05:56:28;;;;;;;8.20;7.20;;;19.90;99.90;;;19.38;100.00;97586.19;5091322;28;20497;-70
2023/08/26 05:58:56;;;;;;;7.80;7.10;;;19.80;99.90;;;19.51;100.00;97598.44;5091258;28;20448;-69
2023/08/26 06:01:25;;;;;;;8.37;7.67;;;19.90;99.90;;;19.56;100.00;97589.34;5090406;28;20854;-70
2023/08/26 06:03:52;;;;;;;7.90;7.27;;;20.00;99.90;;;19.59;100.00;97598.94;5085331;28;20502;-68
2023/08/26 06:06:19;;;;;;;9.37;7.30;;;20.00;99.90;;;19.51;100.00;97594.88;5091319;28;20462;-70
2023/08/26 06:08:46;;;;;;;7.67;6.97;;;20.00;99.90;;;19.68;100.00;97603.53;5089750;28;20928;-69
2023/08/26 06:11:14;;;;;;;8.00;7.10;;;20.10;99.90;;;19.82;100.00;97598.22;5090313;28;20454;-69
2023/08/26 06:13:41;;;;;;;7.67;6.97;;;20.30;99.90;;;19.84;100.00;97608.09;5090989;28;20460;-70
2023/08/26 06:16:10;;;;;;;7.80;7.10;;;20.30;99.90;;;19.70;100.00;97607.91;5090685;28;20458;-69
2023/08/26 06:18:37;;;;;;;7.70;7.00;;;20.30;99.90;;;19.68;100.00;97610.94;5086721;28;20534;-69
2023/08/26 06:21:05;;;;;;;9.27;7.30;;;20.30;99.90;;;19.67;100.00;97603.81;5089663;28;20472;-70
2023/08/26 06:23:32;;;;;;;7.73;6.77;;;20.30;99.90;;;19.73;100.00;97608.16;5087230;28;20453;-70
2023/08/26 06:26:00;;;;;;;7.50;6.87;;;20.30;99.90;;;19.77;100.00;97613.88;5090869;28;20495;-72
2023/08/26 06:28:27;;;;;;;7.50;6.80;;;20.30;99.90;;;20.37;100.00;97596.41;5089399;28;20447;-70
2023/08/26 06:30:58;;;;;;;6.90;6.10;;;20.60;99.90;;;21.09;96.17;97608.50;5090211;28;20452;-71
2023/08/26 06:33:27;;;;;;;7.33;6.50;;;21.20;99.00;;;21.25;93.53;97605.53;5090108;28;20544;-70
2023/08/26 06:35:54;;;;;;;6.63;5.90;;;21.60;96.40;;;21.61;91.74;97602.25;5089347;28;20639;-70
2023/08/26 06:38:21;;;;;;;6.20;5.70;;;22.00;95.90;;;22.12;88.63;97599.84;5090428;28;20451;-70
2023/08/26 06:40:54;;;;;;;6.10;5.50;;;22.30;94.90;;;22.01;86.28;97594.50;5088971;28;20467;-70
2023/08/26 06:43:22;;;;;;;6.60;5.90;;;22.40;93.80;;;21.99;86.72;97593.16;5088695;28;20537;-70
2023/08/26 06:45:49;;;;;;;7.10;6.40;;;22.40;93.80;;;21.96;86.52;97597.34;5090389;28;20535;-70
2023/08/26 06:48:17;;;;;;;7.53;6.73;;;22.30;93.80;;;21.82;87.42;97613.00;5090394;28;20499;-69
2023/08/26 06:50:50;;;;;;;7.93;5.70;;;22.30;93.80;;;21.95;87.45;97623.22;5090196;28;20756;-70
2023/08/26 06:53:20;;;;;;;6.67;6.00;;;22.30;94.00;;;21.68;88.73;97624.75;5087952;28;20458;-69
2023/08/26 06:55:50;;;;;;;7.43;5.97;;;22.10;94.00;;;21.40;91.21;97629.25;5090304;28;20444;-70
2023/08/26 06:58:17;;;;;;;7.40;6.33;;;21.80;94.90;;;21.38;88.94;97632.28;5087813;28;20902;-70
2023/08/26 07:00:45;;;;;;;5.90;5.30;;;21.80;94.30;;;21.43;89.44;97637.69;5090339;28;20940;-70
2023/08/26 07:03:12;;;;;;;7.43;6.17;;;21.80;94.60;;;21.18;91.29;97638.88;5088276;28;20437;-71
2023/08/26 07:05:43;;;;;;;7.30;6.07;;;21.60;95.00;;;21.05;91.86;97623.94;5089412;28;20472;-71
2023/08/26 07:08:13;;;;;;;7.43;6.10;;;21.60;95.20;;;21.05;91.02;97610.19;5090159;28;21009;-72
2023/08/26 07:10:41;;;;;;;7.17;6.57;;;21.50;95.10;;;20.91;92.05;97624.63;5090339;28;20608;-71
2023/08/26 07:13:08;;;;;;;7.23;6.00;;;21.40;95.20;;;21.30;90.11;97624.69;5087325;28;20542;-70
2023/08/26 07:15:36;;;;;;;6.63;5.50;;;21.50;95.20;;;21.40;88.76;97621.00;5089062;28;20435;-70
2023/08/26 07:18:03;;;;;;;5.90;5.40;;;21.70;94.70;;;21.56;88.96;97607.84;5086557;28;20456;-70
2023/08/26 07:20:30;;;;;;;7.03;6.40;;;21.80;94.70;;;21.56;89.25;97610.59;5083695;28;20548;-70
2023/08/26 07:22:57;;;;;;;6.63;6.03;;;22.00;94.50;;;21.63;87.32;97605.56;5085694;28;20456;-70
2023/08/26 07:25:26;;;;;;;7.10;6.33;;;22.10;93.80;;;21.86;86.13;97622.25;5090240;28;20963;-70
2023/08/26 07:27:53;;;;;;;8.00;6.63;;;22.20;93.70;;;22.33;83.79;97634.13;5089992;28;20463;-71
2023/08/26 07:30:21;;;;;;;6.53;5.93;;;22.50;93.40;;;22.32;83.44;97628.94;5082623;28;20550;-71
2023/08/26 07:32:48;;;;;;;8.57;5.07;;;22.70;93.10;;;22.16;83.68;97633.88;5088204;28;20781;-70
2023/08/26 07:35:15;;;;;;;5.80;5.30;;;22.60;92.90;;;22.27;84.51;97629.84;5090217;28;20515;-70
2023/08/26 07:37:42;;;;;;;7.77;5.87;;;22.60;93.20;;;22.21;83.34;97631.03;5091081;28;20828;-70
2023/08/26 07:40:16;;;;;;;9.97;6.30;;;22.60;92.80;;;22.32;82.43;97635.25;5093610;28;20818;-69
2023/08/26 07:42:45;;;;;;;6.30;5.70;;;22.60;92.80;;;22.38;81.73;97635.19;5092630;28;20858;-70
2023/08/26 07:45:13;;;;;;;6.67;6.03;;;22.70;92.50;;;22.57;80.32;97635.13;5093815;28;20449;-70
2023/08/26 07:47:42;;;;;;;8.30;5.50;;;22.90;92.20;;;22.66;78.94;97651.75;5093732;28;20459;-70
2023/08/26 07:50:10;;;;;;;6.17;5.43;;;23.00;91.90;;;22.70;77.54;97641.78;5092490;28;20931;-69
2023/08/26 07:52:38;;;;;;;6.40;5.47;;;23.10;91.50;;;22.88;76.91;97654.63;5091743;28;20437;-69
2023/08/26 07:55:05;;;;;;;6.13;5.47;;;23.20;91.50;;;22.85;76.28;97649.75;5093443;28;20962;-69
2023/08/26 07:57:32;;;;;;;6.17;5.53;;;23.30;91.10;;;23.32;72.64;97637.81;5093645;28;20484;-68
2023/08/26 08:00:02;;;;;;;6.10;4.93;;;23.60;90.60;;;23.54;72.60;97631.53;5093239;28;20523;-70
2023/08/26 08:02:29;;;;;;;5.13;4.73;;;23.80;90.50;;;23.99;71.73;97633.50;5091279;28;20958;-72
2023/08/26 08:04:57;;;;;;;6.60;5.50;;;24.20;90.60;;;23.93;70.69;97623.72;5093526;28;20455;-70
2023/08/26 08:07:24;;;;;;;5.10;4.70;;;24.40;90.00;;;24.14;70.60;97637.03;5088733;28;20509;-70
2023/08/26 08:09:53;;;;;;;5.67;5.20;;;24.40;89.80;;;24.01;68.86;97624.91;5093258;28;20463;-71
2023/08/26 08:12:20;;;;;;;5.10;4.70;;;24.50;88.70;;;23.71;69.54;97636.34;5092537;28;20450;-69
2023/08/26 08:14:47;;;;;;;4.87;4.20;;;24.30;88.30;;;23.68;69.82;97639.75;5093237;28;20451;-71
2023/08/26 08:17:16;;;;;;;5.53;4.90;;;24.00;88.90;;;23.69;70.41;97633.09;5093249;28;20459;-70
2023/08/26 08:19:45;;;;;;;5.83;5.30;;;24.00;88.90;;;23.60;71.19;97635.78;5093208;28;20446;-70
2023/08/26 08:22:13;;;;;;;5.13;4.63;;;23.90;89.10;;;23.92;70.08;97630.38;5092040;28;21000;-71
2023/08/26 08:24:40;;;;;;;6.40;4.57;;;24.10;89.20;;;24.38;69.42;97633.94;5090541;28;20967;-71
2023/08/26 08:27:07;;;;;;;5.60;5.20;;;24.40;89.30;;;23.67;69.29;97635.34;5088008;28;20860;-70
2023/08/26 08:29:34;;;;;;;5.10;4.63;;;24.10;88.30;;;23.38;70.47;97630.25;5091642;28;20501;-70
2023/08/26 08:32:02;;;;;;;5.77;5.03;;;23.80;88.70;;;23.20;69.94;97628.09;5090463;28;20440;-70
2023/08/26 08:34:30;;;;;;;7.00;4.77;;;23.60;88.00;;;23.06;71.16;97616.25;5092630;28;20845;-72
2023/08/26 08:36:57;;;;;;;7.13;5.07;;;23.40;88.50;;;22.81;69.58;97621.16;5092730;28;20453;-70
2023/08/26 08:39:24;;;;;;;8.27;4.67;;;23.30;87.40;;;22.32;72.15;97627.00;5092501;28;20809;-71
2023/08/26 08:41:52;;;;;;;4.63;4.10;;;22.90;88.10;;;22.33;72.04;97614.06;5100899;28;20494;-70
2023/08/26 08:44:23;;;;;;;6.20;5.37;;;22.70;88.40;;;22.67;71.47;97614.81;5090513;28;20455;-71
2023/08/26 08:46:51;;;;;;;5.30;4.90;;;22.80;88.40;;;22.86;71.37;97607.31;5092899;28;20472;-69
2023/08/26 08:49:18;;;;;;;6.20;4.80;;;23.00;88.80;;;22.82;71.67;97611.78;5090934;28;20458;-71
2023/08/26 08:51:47;;;;;;;6.63;4.83;;;22.90;89.00;;;23.14;70.36;97615.56;5088230;28;21179;-71
2023/08/26 08:54:14;;;;;;;5.53;4.93;;;23.10;88.70;;;23.30;67.75;97629.03;5089995;28;20490;-70
2023/08/26 08:56:43;;;;;;;5.33;4.73;;;23.30;87.70;;;23.34;67.48;97627.28;5091596;28;20462;-71
2023/08/26 08:59:12;;;;;;;8.23;5.20;;;23.30;87.50;;;23.72;66.74;97628.91;5082986;28;20474;-71
2023/08/26 09:01:40;;;;;;;5.47;4.97;;;23.60;87.30;;;24.23;65.42;97635.16;5077294;28;20472;-71
2023/08/26 09:04:09;;;;;;;5.17;4.30;;;24.00;87.30;;;24.96;62.72;97622.22;5092074;28;20454;-72
2023/08/26 09:06:37;;;;;;;6.87;4.47;;;24.70;86.40;;;25.23;60.84;97623.91;5087154;28;20451;-70
2023/08/26 09:09:10;;;;;;;6.47;5.33;;;25.00;84.60;;;24.99;60.57;97614.06;5092284;28;20478;-70
2023/08/26 09:11:38;;;;;;;5.40;4.63;;;25.10;83.60;;;24.69;61.59;97607.47;5091400;28;20451;-70
2023/08/26 09:14:05;;;;;;;4.97;4.50;;;24.80;83.70;;;24.60;62.32;97599.16;5090713;28;20486;-70
2023/08/26 09:16:36;;;;;;;5.23;4.23;;;24.60;84.30;;;24.62;62.25;97605.97;5091939;28;20467;-71
2023/08/26 09:19:03;;;;;;;7.03;4.50;;;24.60;84.10;;;24.79;61.38;97611.91;5078945;28;20455;-70
2023/08/26 09:21:31;;;;;;;6.53;4.37;;;24.70;83.70;;;24.56;61.63;97615.53;5082281;28;20973;-71
2023/08/26 09:23:59;;;;;;;6.03;4.67;;;24.60;83.50;;;24.72;62.03;97613.16;5087892;28;20452;-69
2023/08/26 09:26:28;;;;;;;4.53;4.10;;;24.80;84.40;;;25.27;61.10;97604.72;5088214;28;20461;-72
2023/08/26 09:28:56;;;;;;;4.10;3.70;;;25.10;84.00;;;25.02;59.69;97607.09;5092019;28;20452;-71
2023/08/26 09:31:23;;;;;;;4.73;3.80;;;25.20;82.20;;;25.22;57.73;97604.88;5088079;28;20463;-70
2023/08/26 09:33:51;;;;;;;5.40;3.47;;;25.30;80.70;;;25.49;54.48;97589.16;5085143;28;20542;-71
2023/08/26 09:36:18;;;;;;;5.90;3.73;;;25.50;78.80;;;25.93;52.13;97592.72;5090375;28;20540;-71
2023/08/26 09:38:49;;;;;;;10.80;4.07;;;25.70;76.70;;;25.78;51.89;97596.00;5091724;28;20460;-71
2023/08/26 09:41:21;;;;;;;5.97;3.60;;;25.70;75.50;;;25.35;52.42;97594.81;5082455;28;20464;-71
2023/08/26 09:43:50;;;;;;;8.87;3.70;;;25.60;74.80;;;25.48;53.39;97604.09;5090173;28;20451;-71
2023/08/26 09:46:20;;;;;;;5.77;3.67;;;25.50;75.60;;;26.12;52.30;97588.78;5091480;28;20459;-71
2023/08/26 09:48:49;;;;;;;6.23;4.30;;;25.90;75.50;;;25.94;52.58;97588.81;5087787;28;20528;-70
2023/08/26 09:51:29;;;;;;;4.00;3.60;;;25.90;75.20;;;26.84;49.86;97597.38;5083832;28;20777;-72
2023/08/26 09:53:57;;;;;;;8.30;3.70;;;26.50;74.00;;;26.29;51.89;97587.97;5091089;28;20454;-71
2023/08/26 09:56:26;;;;;;;4.50;3.33;;;26.50;73.90;;;26.55;52.16;97579.56;5091452;28;20454;-70
2023/08/26 09:58:56;;;;;;;5.97;3.90;;;26.50;74.70;;;26.93;50.11;97588.25;5091799;28;20457;-70
2023/08/26 10:01:25;;;;;;;5.80;3.83;;;26.80;73.40;;;26.99;49.17;97575.81;5089445;28;20481;-70
2023/08/26 10:04:00;;;;;;;5.30;3.40;;;26.90;72.40;;;26.75;49.55;97574.41;5091197;28;20482;-74
2023/08/26 10:06:30;;;;;;;3.83;2.83;;;26.70;71.90;;;27.18;46.66;97566.22;5092823;28;20442;-70
2023/08/26 10:09:07;;;;;;;6.53;3.27;;;27.00;70.00;;;26.68;48.23;97565.81;5091379;28;20895;-70
2023/08/26 10:11:39;;;;;;;6.13;3.63;;;26.90;69.80;;;26.38;48.68;97555.50;5090651;28;20515;-71
2023/08/26 10:14:13;;;;;;;5.70;3.60;;;26.80;69.50;;;26.34;48.93;97551.78;5101011;28;20481;-71
2023/08/26 10:16:42;;;;;;;5.37;3.30;;;26.60;69.60;;;26.03;49.60;97539.81;5088819;28;20781;-71